Time;durP1;ratioP1;P1;durP2;ratioP2;P2;SDS_P1;SDS_P2;PMS_P1;PMS_P2;Temp;Humidity;BMP_temperature;BMP_pressure;BME280_temperature;BME280_humidity;BME280_pressure;Samples;Min_cycle;Max_cycle;Signal;HPM_P1;HPM_P2
2022/03/18 00:02:08;;;;;;;31.05;15.95;;;3.20;99.90;;;;;;5030561;28;20036;-58
2022/03/18 00:04:33;;;;;;;46.28;16.17;;;3.20;99.90;;;;;;5026180;28;20568;-58
2022/03/18 00:06:59;;;;;;;33.40;15.73;;;3.20;99.90;;;;;;5025107;28;20025;-59
2022/03/18 00:09:25;;;;;;;33.45;15.27;;;3.20;99.90;;;;;;5022233;28;20406;-55
2022/03/18 00:11:50;;;;;;;28.90;15.05;;;3.20;99.90;;;;;;5025936;28;20502;-59
2022/03/18 00:14:16;;;;;;;35.45;16.17;;;3.20;99.90;;;;;;5030517;28;20021;-59
2022/03/18 00:16:42;;;;;;;27.42;15.52;;;3.20;99.90;;;;;;5029949;28;20749;-56
2022/03/18 00:19:07;;;;;;;29.95;14.15;;;3.20;99.90;;;;;;5029669;28;20546;-60
2022/03/18 00:21:36;;;;;;;44.58;15.98;;;3.20;99.90;;;;;;5027421;28;20483;-58
2022/03/18 00:24:03;;;;;;;30.10;14.63;;;3.20;99.90;;;;;;5024996;28;20037;-58
2022/03/18 00:26:29;;;;;;;34.20;16.10;;;3.10;99.90;;;;;;5024265;28;20108;-62
2022/03/18 00:28:55;;;;;;;34.53;16.33;;;3.10;99.90;;;;;;5029374;28;20037;-61
2022/03/18 00:31:21;;;;;;;32.70;16.85;;;3.10;99.90;;;;;;5031194;28;20033;-60
2022/03/18 00:33:46;;;;;;;35.00;16.05;;;3.10;99.90;;;;;;5024751;28;20037;-60
2022/03/18 00:36:12;;;;;;;29.55;15.80;;;3.10;99.90;;;;;;5023275;28;20048;-58
2022/03/18 00:38:38;;;;;;;33.80;16.83;;;3.00;99.90;;;;;;5022769;28;20620;-59
2022/03/18 00:41:03;;;;;;;33.05;15.50;;;3.10;99.90;;;;;;5002864;28;20040;-58
2022/03/18 00:43:29;;;;;;;36.47;17.08;;;3.00;99.90;;;;;;5028380;28;20399;-59
2022/03/18 00:45:55;;;;;;;31.13;16.00;;;3.00;99.90;;;;;;5033805;28;20025;-61
2022/03/18 00:53:48;;;;;;;36.55;18.63;;;2.90;99.90;;;;;;5002942;28;20200;-59
2022/03/18 00:56:14;;;;;;;40.17;19.75;;;2.80;99.90;;;;;;5023112;28;20173;-59
2022/03/18 00:58:40;;;;;;;37.53;16.48;;;2.80;99.90;;;;;;5026597;28;20034;-54
2022/03/18 01:01:06;;;;;;;40.17;17.25;;;2.70;99.90;;;;;;5029440;28;20025;-56
2022/03/18 01:03:31;;;;;;;25.30;12.40;;;2.70;99.90;;;;;;5029493;28;20025;-58
2022/03/18 01:05:57;;;;;;;28.20;13.23;;;2.60;99.90;;;;;;5030466;28;21057;-58
2022/03/18 01:08:23;;;;;;;26.42;12.60;;;2.60;99.90;;;;;;5021927;28;20131;-60
2022/03/18 01:10:48;;;;;;;32.75;13.35;;;2.60;99.90;;;;;;5021364;28;20120;-58
2022/03/18 01:13:14;;;;;;;27.08;13.57;;;2.50;99.90;;;;;;5028317;28;20028;-59
2022/03/18 01:15:40;;;;;;;28.98;13.10;;;2.50;99.90;;;;;;5032206;28;20052;-60
2022/03/18 01:18:06;;;;;;;26.30;12.25;;;2.50;99.90;;;;;;5026137;28;20363;-58
2022/03/18 01:20:31;;;;;;;28.02;10.90;;;2.50;99.90;;;;;;5027697;28;20040;-60
2022/03/18 01:22:57;;;;;;;28.20;13.25;;;2.50;99.90;;;;;;5026937;28;20177;-60
2022/03/18 01:25:22;;;;;;;31.48;13.38;;;2.50;99.90;;;;;;5025291;28;20024;-58
2022/03/18 01:27:48;;;;;;;24.42;13.05;;;2.60;99.90;;;;;;5024898;28;20096;-59
2022/03/18 01:30:14;;;;;;;26.70;13.85;;;2.60;99.90;;;;;;5031887;28;20022;-60
2022/03/18 01:32:40;;;;;;;28.55;13.35;;;2.60;99.90;;;;;;5030706;28;20025;-54
2022/03/18 01:35:06;;;;;;;32.80;13.40;;;2.60;99.90;;;;;;5032615;28;20029;-62
2022/03/18 01:37:32;;;;;;;39.38;16.90;;;2.60;99.90;;;;;;5021362;28;20033;-59
2022/03/18 01:39:57;;;;;;;28.42;13.55;;;2.70;99.90;;;;;;5023978;28;20279;-55
2022/03/18 01:42:23;;;;;;;37.03;15.07;;;2.80;99.90;;;;;;5020865;28;20044;-60
2022/03/18 01:44:48;;;;;;;34.03;14.02;;;2.80;99.90;;;;;;5029522;28;20478;-61
2022/03/18 01:47:14;;;;;;;32.28;16.02;;;2.90;99.90;;;;;;5029007;28;20538;-57
2022/03/18 01:49:40;;;;;;;31.90;14.70;;;2.90;99.90;;;;;;5028323;28;20021;-58
2022/03/18 01:52:08;;;;;;;37.20;14.77;;;3.00;99.90;;;;;;5005899;28;20044;-57
2022/03/18 01:54:49;;;;;;;35.67;15.57;;;2.90;99.90;;;;;;5008813;28;20087;-60
2022/03/18 01:57:25;;;;;;;34.70;15.50;;;2.90;99.90;;;;;;5006488;28;20032;-57
2022/03/18 01:59:51;;;;;;;31.98;14.88;;;2.90;99.90;;;;;;5025911;28;20053;-57
2022/03/18 02:02:18;;;;;;;33.75;17.55;;;2.90;99.90;;;;;;5023764;28;20028;-59
2022/03/18 02:04:45;;;;;;;32.03;15.68;;;2.80;99.90;;;;;;5028645;28;20106;-59
2022/03/18 02:07:11;;;;;;;32.60;16.60;;;2.80;99.90;;;;;;5021827;28;20037;-58
2022/03/18 02:09:38;;;;;;;34.15;15.32;;;2.80;99.90;;;;;;5020802;28;20022;-58
2022/03/18 02:12:05;;;;;;;32.97;14.85;;;2.70;99.90;;;;;;5022646;28;20038;-61
2022/03/18 02:14:42;;;;;;;36.90;16.73;;;2.70;99.90;;;;;;5030234;28;20021;-59
2022/03/18 02:17:10;;;;;;;37.92;16.60;;;2.70;99.90;;;;;;5031120;28;20040;-59
2022/03/18 02:19:37;;;;;;;33.05;16.60;;;2.70;99.90;;;;;;5032031;28;20025;-58
2022/03/18 02:22:11;;;;;;;48.80;19.00;;;2.80;99.90;;;;;;5024044;28;20021;-59
2022/03/18 02:24:42;;;;;;;34.70;16.65;;;2.70;99.90;;;;;;5024442;28;20489;-59
2022/03/18 02:27:08;;;;;;;35.10;16.70;;;2.70;99.90;;;;;;5020889;28;20032;-59
2022/03/18 02:29:34;;;;;;;31.02;16.45;;;2.60;99.90;;;;;;5029669;28;20025;-60
2022/03/18 02:32:01;;;;;;;39.03;16.27;;;2.60;99.90;;;;;;5030928;28;20025;-60
2022/03/18 02:34:27;;;;;;;28.58;15.25;;;2.60;99.90;;;;;;5030933;28;20084;-59
2022/03/18 02:36:53;;;;;;;35.10;16.55;;;2.50;99.90;;;;;;5023093;28;20018;-60
2022/03/18 02:39:18;;;;;;;37.58;16.70;;;2.40;99.90;;;;;;5019737;28;20037;-60
2022/03/18 02:41:44;;;;;;;39.05;17.00;;;2.30;99.90;;;;;;5023192;28;20032;-57
2022/03/18 02:44:10;;;;;;;35.00;17.25;;;2.20;99.90;;;;;;5026905;28;20044;-59
2022/03/18 02:46:35;;;;;;;32.70;17.30;;;2.20;99.90;;;;;;5025413;28;20450;-58
2022/03/18 02:49:03;;;;;;;37.72;16.67;;;2.10;99.90;;;;;;5014223;28;20049;-58
2022/03/18 02:51:29;;;;;;;30.45;15.05;;;2.10;99.90;;;;;;5026138;28;20513;-54
2022/03/18 02:53:55;;;;;;;34.22;14.65;;;2.10;99.90;;;;;;5002171;28;20029;-56
2022/03/18 02:56:21;;;;;;;29.58;13.77;;;2.20;99.90;;;;;;5021954;28;20021;-58
2022/03/18 02:58:46;;;;;;;26.15;13.40;;;2.20;99.90;;;;;;5026646;28;20075;-61
2022/03/18 03:01:12;;;;;;;28.60;12.10;;;2.40;99.90;;;;;;5030710;28;20033;-58
2022/03/18 03:03:37;;;;;;;23.23;11.32;;;2.50;99.90;;;;;;5030603;28;20033;-59
2022/03/18 03:12:49;;;;;;;29.20;10.73;;;2.70;99.90;;;;;;5003877;28;20175;-56
2022/03/18 03:15:14;;;;;;;26.90;12.20;;;2.60;99.90;;;;;;5021768;28;20022;-59
2022/03/18 03:17:40;;;;;;;23.52;11.25;;;2.60;99.90;;;;;;5022803;28;20372;-60
2022/03/18 03:20:08;;;;;;;24.23;11.07;;;2.50;99.90;;;;;;5030110;28;20493;-60
2022/03/18 03:22:34;;;;;;;27.30;12.73;;;2.40;99.90;;;;;;5020104;28;20029;-54
2022/03/18 03:25:00;;;;;;;28.00;14.95;;;2.30;99.90;;;;;;5021139;28;20433;-61
2022/03/18 03:27:32;;;;;;;29.60;13.63;;;2.20;99.90;;;;;;5021700;28;20021;-60
2022/03/18 03:29:59;;;;;;;33.80;15.57;;;2.10;99.90;;;;;;5029759;28;20136;-58
2022/03/18 03:32:25;;;;;;;33.88;14.68;;;2.00;99.90;;;;;;5030374;28;20037;-59
2022/03/18 03:34:51;;;;;;;29.23;16.70;;;1.90;99.90;;;;;;5029096;28;20108;-61
2022/03/18 03:37:16;;;;;;;34.88;16.15;;;1.90;99.90;;;;;;5022725;28;20542;-60
2022/03/18 03:39:42;;;;;;;27.02;15.43;;;1.80;99.90;;;;;;5020726;28;20040;-58
2022/03/18 03:42:08;;;;;;;27.88;15.25;;;1.70;99.90;;;;;;5018130;28;20810;-60
2022/03/18 03:44:33;;;;;;;37.17;16.40;;;1.60;99.90;;;;;;5029337;28;20064;-60
2022/03/18 03:46:59;;;;;;;30.35;15.30;;;1.60;99.90;;;;;;5029812;28;20087;-54
2022/03/18 03:49:25;;;;;;;25.75;13.02;;;1.60;99.90;;;;;;5029901;28;20046;-58
2022/03/18 03:51:51;;;;;;;34.47;14.73;;;1.60;99.90;;;;;;5024083;28;20462;-58
2022/03/18 03:54:16;;;;;;;26.60;14.68;;;1.50;99.90;;;;;;5001993;28;20049;-58
2022/03/18 03:56:42;;;;;;;24.52;13.93;;;1.60;99.90;;;;;;5025286;28;20041;-60
2022/03/18 03:59:07;;;;;;;21.92;11.68;;;1.60;99.90;;;;;;5027713;28;20040;-59
2022/03/18 04:01:33;;;;;;;23.58;14.20;;;1.50;99.90;;;;;;5029499;28;20033;-59
2022/03/18 04:03:58;;;;;;;34.97;14.05;;;1.50;99.90;;;;;;5020089;28;20403;-60
2022/03/18 04:06:24;;;;;;;42.55;17.13;;;1.50;99.90;;;;;;5025706;28;20026;-58
2022/03/18 04:08:50;;;;;;;29.13;13.13;;;1.50;99.90;;;;;;5019346;28;20029;-60
2022/03/18 04:11:15;;;;;;;32.85;14.57;;;1.40;99.90;;;;;;5021377;28;20429;-58
2022/03/18 04:13:41;;;;;;;29.15;14.02;;;1.40;99.90;;;;;;5025664;28;20108;-57
2022/03/18 04:16:06;;;;;;;28.35;15.05;;;1.40;99.90;;;;;;5029813;28;20029;-55
2022/03/18 04:18:32;;;;;;;30.48;14.10;;;1.40;99.90;;;;;;5029589;28;20075;-60
2022/03/18 04:20:58;;;;;;;32.40;16.48;;;1.40;99.90;;;;;;5025875;28;20025;-58
2022/03/18 04:23:23;;;;;;;38.58;16.17;;;1.50;99.90;;;;;;5019760;28;20136;-60
2022/03/18 04:25:51;;;;;;;33.08;16.00;;;1.50;99.90;;;;;;5019647;28;20033;-59
2022/03/18 04:28:19;;;;;;;32.88;15.23;;;1.60;99.90;;;;;;5024214;28;20018;-61
2022/03/18 04:30:45;;;;;;;31.52;15.25;;;1.60;99.90;;;;;;5031288;28;20528;-62
2022/03/18 04:33:10;;;;;;;30.95;13.93;;;1.60;99.90;;;;;;5029791;28;20028;-56
2022/03/18 04:35:36;;;;;;;30.33;15.80;;;1.60;99.90;;;;;;5031190;28;20444;-59
2022/03/18 04:38:01;;;;;;;31.85;14.75;;;1.60;99.90;;;;;;5024777;28;20028;-59
2022/03/18 04:40:28;;;;;;;31.65;14.43;;;1.50;99.90;;;;;;5030477;28;20056;-59
2022/03/18 04:42:53;;;;;;;39.65;15.40;;;1.40;99.90;;;;;;5025457;28;20108;-59
2022/03/18 04:45:19;;;;;;;31.67;15.05;;;1.30;99.90;;;;;;5033605;28;20096;-58
2022/03/18 04:47:44;;;;;;;34.03;14.05;;;1.30;99.90;;;;;;5031640;28;20387;-56
2022/03/18 04:50:11;;;;;;;24.58;12.52;;;1.10;99.90;;;;;;5028393;28;20018;-56
2022/03/18 04:52:37;;;;;;;22.45;12.10;;;1.00;99.90;;;;;;5024153;28;20048;-58
2022/03/18 04:55:04;;;;;;;23.92;13.38;;;0.90;99.90;;;;;;5007796;28;20422;-57
2022/03/18 04:57:31;;;;;;;25.85;12.50;;;0.80;99.90;;;;;;5025999;28;20485;-59
2022/03/18 04:59:57;;;;;;;25.10;12.60;;;0.70;99.90;;;;;;5032176;28;20417;-61
2022/03/18 05:02:24;;;;;;;33.40;14.57;;;0.60;99.90;;;;;;5030609;28;20095;-56
2022/03/18 05:04:50;;;;;;;31.60;14.70;;;0.60;99.90;;;;;;5032556;28;20021;-59
2022/03/18 05:07:17;;;;;;;34.75;15.55;;;0.70;99.90;;;;;;5024086;28;20486;-57
2022/03/18 05:09:44;;;;;;;35.72;17.23;;;0.80;99.90;;;;;;5023329;28;20398;-60
2022/03/18 05:12:12;;;;;;;36.42;18.05;;;0.90;99.90;;;;;;5022201;28;20021;-57
2022/03/18 05:14:38;;;;;;;39.13;17.75;;;1.00;99.90;;;;;;5035607;28;20474;-58
2022/03/18 05:17:05;;;;;;;38.75;17.20;;;1.10;99.90;;;;;;5032478;28;20030;-56
2022/03/18 05:19:30;;;;;;;39.17;18.27;;;1.10;99.90;;;;;;5030640;28;20025;-59
2022/03/18 05:21:57;;;;;;;35.30;16.48;;;1.10;99.90;;;;;;5028322;28;20072;-60
2022/03/18 05:24:22;;;;;;;38.80;17.00;;;1.00;99.90;;;;;;5022548;28;20025;-57
2022/03/18 05:26:48;;;;;;;27.90;14.25;;;1.00;99.90;;;;;;5024283;28;20486;-59
2022/03/18 05:29:16;;;;;;;28.65;14.45;;;0.80;99.90;;;;;;5031092;28;20113;-58
2022/03/18 05:31:43;;;;;;;42.60;16.27;;;0.70;99.90;;;;;;5032749;28;20395;-60
2022/03/18 05:34:08;;;;;;;40.35;16.10;;;0.60;99.90;;;;;;5031424;28;20028;-61
2022/03/18 05:36:34;;;;;;;32.22;15.25;;;0.60;99.90;;;;;;5027220;28;20033;-59
2022/03/18 05:38:59;;;;;;;29.92;13.73;;;0.50;99.90;;;;;;5020372;28;20025;-57
2022/03/18 05:41:25;;;;;;;30.42;13.88;;;0.40;99.90;;;;;;5023155;28;20049;-61
2022/03/18 05:43:51;;;;;;;30.65;14.27;;;0.30;99.90;;;;;;5028680;28;20071;-57
2022/03/18 05:46:16;;;;;;;27.05;13.80;;;0.20;99.90;;;;;;5031107;28;20018;-59
2022/03/18 05:48:42;;;;;;;27.90;14.40;;;0.20;99.90;;;;;;5034761;28;20036;-58
2022/03/18 05:51:08;;;;;;;25.37;12.93;;;0.20;99.90;;;;;;5022708;28;20025;-60
2022/03/18 05:53:33;;;;;;;31.33;15.07;;;0.10;99.90;;;;;;5022869;28;20025;-60
2022/03/18 05:58:44;;;;;;;35.55;16.80;;;0.10;99.90;;;;;;5026898;28;20437;-59
2022/03/18 06:01:12;;;;;;;39.53;15.73;;;0.20;99.90;;;;;;5030643;28;20402;-61
2022/03/18 06:03:38;;;;;;;37.35;16.17;;;0.20;99.90;;;;;;5030345;28;20029;-53
2022/03/18 06:06:04;;;;;;;27.92;15.02;;;0.30;99.90;;;;;;5028056;28;20029;-60
2022/03/18 06:13:58;;;;;;;31.52;15.52;;;0.30;99.90;;;;;;5026879;28;20027;-59
2022/03/18 06:16:23;;;;;;;30.73;16.92;;;0.40;99.90;;;;;;5029891;28;20108;-58
2022/03/18 06:18:50;;;;;;;34.97;16.08;;;0.50;99.90;;;;;;5029461;28;20035;-58
2022/03/18 06:21:16;;;;;;;35.92;16.77;;;0.60;99.90;;;;;;5027254;28;20113;-61
2022/03/18 06:23:42;;;;;;;32.80;16.33;;;0.60;99.90;;;;;;5022482;28;20091;-58
2022/03/18 06:26:07;;;;;;;33.67;17.17;;;0.70;99.90;;;;;;5022991;28;20111;-61
2022/03/18 06:28:33;;;;;;;38.72;18.40;;;0.80;99.90;;;;;;5025124;28;20029;-61
2022/03/18 06:30:59;;;;;;;32.38;16.83;;;0.90;99.90;;;;;;5030978;28;20041;-60
2022/03/18 06:33:27;;;;;;;33.67;16.83;;;1.00;99.90;;;;;;5030744;28;20605;-58
2022/03/18 06:35:53;;;;;;;30.85;16.15;;;1.10;99.90;;;;;;5028134;28;20052;-59
2022/03/18 06:38:18;;;;;;;28.00;15.13;;;1.30;99.90;;;;;;5021562;28;20730;-59
2022/03/18 06:40:44;;;;;;;28.88;14.20;;;1.70;99.90;;;;;;5021527;28;20148;-57
2022/03/18 06:43:10;;;;;;;27.27;13.73;;;2.20;99.90;;;;;;5021658;28;20479;-60
2022/03/18 06:45:35;;;;;;;28.17;12.55;;;2.60;99.90;;;;;;5029289;28;20391;-59
2022/03/18 06:48:01;;;;;;;19.58;10.10;;;3.10;99.90;;;;;;5024642;28;20030;-58
2022/03/18 06:50:27;;;;;;;22.42;10.38;;;3.70;99.90;;;;;;5024406;28;20025;-60
2022/03/18 06:52:52;;;;;;;21.40;10.20;;;4.40;99.90;;;;;;5021575;28;20029;-58
2022/03/18 06:55:18;;;;;;;22.20;9.10;;;5.20;99.90;;;;;;5005474;28;20037;-59
2022/03/18 06:57:43;;;;;;;27.20;13.93;;;5.90;99.90;;;;;;5023237;28;20027;-58
2022/03/18 07:00:09;;;;;;;19.77;10.80;;;6.80;99.90;;;;;;5029309;28;20044;-56
2022/03/18 07:02:35;;;;;;;19.50;10.23;;;6.90;99.90;;;;;;5029174;28;20029;-59
2022/03/18 07:05:01;;;;;;;17.70;10.38;;;7.40;99.90;;;;;;5029788;28;20547;-60
2022/03/18 07:07:27;;;;;;;18.80;8.88;;;7.70;99.90;;;;;;5021584;28;20072;-60
2022/03/18 07:09:52;;;;;;;15.77;9.23;;;8.50;99.90;;;;;;5021729;28;20518;-58
2022/03/18 07:12:18;;;;;;;20.67;11.52;;;9.50;99.90;;;;;;5021799;28;20068;-59
2022/03/18 07:14:43;;;;;;;20.80;9.52;;;9.90;98.70;;;;;;5024631;28;20032;-60
2022/03/18 07:19:53;;;;;;;;;;;10.60;97.10;;;;;;5030567;28;20422;-60
2022/03/18 07:22:19;;;;;;;18.05;8.25;;;12.20;95.40;;;;;;5022069;28;19912;-57
2022/03/18 07:24:45;;;;;;;12.70;7.45;;;11.40;92.90;;;;;;5021949;28;20037;-60
2022/03/18 07:27:10;;;;;;;12.85;8.25;;;10.10;95.40;;;;;;5020185;28;20033;-60
2022/03/18 07:29:36;;;;;;;13.52;8.50;;;9.30;97.20;;;;;;5030293;28;20116;-60
2022/03/18 07:32:03;;;;;;;12.35;7.43;;;8.40;98.80;;;;;;5029721;28;20068;-60
2022/03/18 07:34:29;;;;;;;17.65;8.52;;;7.30;99.90;;;;;;5027469;28;20025;-59
2022/03/18 07:36:54;;;;;;;13.38;7.65;;;6.70;99.90;;;;;;5024799;28;20544;-59
2022/03/18 07:39:20;;;;;;;16.48;8.55;;;6.20;99.90;;;;;;5018558;28;20061;-58
2022/03/18 07:41:45;;;;;;;13.75;7.90;;;5.80;99.90;;;;;;5021103;28;20068;-56
2022/03/18 07:44:11;;;;;;;16.77;9.20;;;5.60;99.90;;;;;;5024777;28;20116;-60
2022/03/18 07:46:37;;;;;;;18.83;9.45;;;5.60;99.90;;;;;;5024196;28;20076;-60
2022/03/18 07:49:02;;;;;;;17.70;9.20;;;5.60;99.90;;;;;;5024846;28;20021;-58
2022/03/18 07:51:30;;;;;;;18.67;9.00;;;5.70;99.90;;;;;;5025243;28;20113;-58
2022/03/18 07:53:56;;;;;;;19.70;9.10;;;5.70;99.90;;;;;;5019515;28;20022;-58
2022/03/18 07:56:22;;;;;;;16.02;7.55;;;5.70;99.90;;;;;;4985597;28;20042;-58
2022/03/18 07:58:48;;;;;;;26.20;8.43;;;5.60;99.90;;;;;;5025488;28;20482;-58
2022/03/18 08:01:13;;;;;;;15.43;7.93;;;5.70;99.90;;;;;;5011940;28;20029;-60
2022/03/18 08:03:39;;;;;;;16.63;8.77;;;5.90;99.90;;;;;;5011661;28;20112;-58
2022/03/18 08:06:05;;;;;;;22.08;10.20;;;5.90;99.90;;;;;;4995926;28;20108;-59
2022/03/18 08:08:33;;;;;;;17.55;9.40;;;6.10;99.90;;;;;;5024471;28;20490;-58
2022/03/18 08:10:59;;;;;;;22.92;10.23;;;5.90;99.90;;;;;;5024137;28;20034;-55
2022/03/18 08:13:25;;;;;;;14.80;8.18;;;6.00;99.90;;;;;;5026280;28;20544;-59
2022/03/18 08:15:51;;;;;;;15.13;6.35;;;5.90;99.90;;;;;;5033249;28;20454;-60
2022/03/18 08:18:18;;;;;;;29.45;9.52;;;5.80;99.90;;;;;;5028945;28;20043;-60
2022/03/18 08:20:44;;;;;;;19.23;9.45;;;5.90;99.90;;;;;;5031147;28;20033;-59
2022/03/18 08:23:14;;;;;;;21.23;8.73;;;6.00;99.90;;;;;;5023996;28;20025;-60
2022/03/18 08:25:40;;;;;;;29.30;11.40;;;6.20;99.90;;;;;;5023551;28;20021;-60
2022/03/18 08:28:07;;;;;;;19.73;10.45;;;6.40;99.90;;;;;;5027333;28;20068;-59
2022/03/18 08:30:33;;;;;;;18.25;8.82;;;6.60;99.90;;;;;;5032806;28;20043;-57
2022/03/18 08:32:59;;;;;;;19.27;9.32;;;7.00;99.90;;;;;;5030144;28;20094;-60
2022/03/18 08:35:24;;;;;;;25.05;8.30;;;7.00;99.90;;;;;;5030841;28;20030;-59
2022/03/18 08:37:56;;;;;;;17.05;8.68;;;7.30;99.90;;;;;;5024127;28;20040;-58
2022/03/18 08:40:27;;;;;;;19.02;6.10;;;7.80;99.90;;;;;;5021945;28;20025;-58
2022/03/18 08:42:53;;;;;;;19.65;7.45;;;8.30;99.90;;;;;;5023578;28;20017;-59
2022/03/18 08:45:19;;;;;;;15.30;5.38;;;8.80;99.90;;;;;;5031010;28;20095;-58
2022/03/18 08:47:45;;;;;;;12.52;5.95;;;9.80;99.90;;;;;;5027918;28;20465;-56
2022/03/18 08:50:12;;;;;;;10.85;4.07;;;10.40;99.90;;;;;;5007593;28;20021;-56
2022/03/18 08:52:38;;;;;;;7.57;3.78;;;11.00;98.10;;;;;;5022064;28;20181;-58
2022/03/18 08:55:05;;;;;;;6.97;3.47;;;12.00;94.70;;;;;;5023734;28;20493;-57
2022/03/18 08:57:33;;;;;;;11.05;4.10;;;12.10;92.60;;;;;;5007564;28;20049;-58
2022/03/18 08:59:59;;;;;;;9.75;4.40;;;12.20;93.80;;;;;;5031141;28;20033;-60
2022/03/18 09:02:24;;;;;;;9.60;3.75;;;12.70;92.70;;;;;;5031138;28;20079;-62
2022/03/18 09:04:52;;;;;;;9.07;3.67;;;13.10;92.20;;;;;;5022401;28;20026;-59
2022/03/18 09:07:18;;;;;;;9.20;3.92;;;13.70;90.70;;;;;;5022315;28;20366;-60
2022/03/18 09:09:44;;;;;;;12.05;4.53;;;13.40;90.70;;;;;;5022384;28;20030;-60
2022/03/18 09:12:09;;;;;;;9.13;4.10;;;13.50;90.10;;;;;;5022633;28;20022;-60
2022/03/18 09:14:35;;;;;;;12.07;3.42;;;14.00;89.40;;;;;;5031697;28;20056;-59
2022/03/18 09:17:01;;;;;;;12.20;3.80;;;13.80;85.40;;;;;;5026528;28;20038;-59
2022/03/18 09:19:26;;;;;;;9.05;3.58;;;13.90;87.80;;;;;;5025317;28;20163;-60
2022/03/18 09:21:52;;;;;;;7.57;3.28;;;13.80;88.70;;;;;;5024904;28;20029;-60
2022/03/18 09:24:18;;;;;;;11.43;3.53;;;13.90;87.30;;;;;;5022526;28;20025;-59
2022/03/18 09:26:44;;;;;;;10.10;2.80;;;14.30;83.20;;;;;;5023234;28;20026;-58
2022/03/18 09:29:10;;;;;;;4.93;2.13;;;14.50;82.00;;;;;;5029384;28;20056;-60
2022/03/18 09:31:36;;;;;;;9.30;2.90;;;14.60;82.70;;;;;;5031737;28;20497;-59
2022/03/18 09:34:01;;;;;;;6.72;2.45;;;14.40;81.10;;;;;;5030663;28;20525;-59
2022/03/18 09:36:27;;;;;;;9.18;2.63;;;14.70;81.20;;;;;;5026632;28;20038;-60
2022/03/18 09:38:54;;;;;;;8.05;2.20;;;15.10;78.80;;;;;;5019255;28;20033;-61
2022/03/18 09:41:20;;;;;;;4.82;1.55;;;15.10;73.50;;;;;;5022461;28;20389;-60
2022/03/18 09:43:46;;;;;;;4.43;1.55;;;15.20;75.20;;;;;;5026144;28;20036;-59
2022/03/18 09:46:13;;;;;;;5.40;1.27;;;15.70;72.80;;;;;;5011185;28;20013;-59
2022/03/18 09:48:40;;;;;;;3.47;1.38;;;15.90;66.20;;;;;;5030723;28;20409;-59
2022/03/18 09:51:06;;;;;;;4.68;1.48;;;16.00;62.70;;;;;;5028003;28;20034;-59
2022/03/18 09:53:34;;;;;;;6.93;1.30;;;15.90;61.00;;;;;;5022425;28;20060;-60
2022/03/18 09:56:00;;;;;;;5.53;0.98;;;15.50;61.90;;;;;;5022748;28;21852;-60
2022/03/18 09:58:26;;;;;;;4.57;1.08;;;14.80;63.00;;;;;;5010729;28;20049;-56
2022/03/18 10:00:51;;;;;;;6.30;0.98;;;15.10;62.50;;;;;;5031527;28;20029;-54
2022/03/18 10:03:21;;;;;;;7.03;1.55;;;14.90;61.20;;;;;;5030913;28;20028;-59
2022/03/18 10:05:57;;;;;;;2.72;1.45;;;15.40;60.10;;;;;;5029216;28;20172;-56
2022/03/18 10:08:23;;;;;;;3.65;0.88;;;15.50;57.60;;;;;;5023303;28;20084;-60
2022/03/18 10:10:49;;;;;;;2.05;0.90;;;15.40;57.30;;;;;;5023040;28;20026;-60
2022/03/18 10:13:16;;;;;;;2.33;1.02;;;15.60;57.60;;;;;;5026500;28;20103;-59
2022/03/18 10:15:43;;;;;;;2.70;0.98;;;15.70;53.20;;;;;;5031511;28;20025;-59
2022/03/18 10:18:14;;;;;;;1.05;0.50;;;15.80;53.80;;;;;;5026035;28;20026;-54
2022/03/18 10:20:42;;;;;;;1.27;0.63;;;15.60;51.10;;;;;;5012648;28;20045;-57
2022/03/18 10:23:16;;;;;;;1.23;0.90;;;15.40;49.50;;;;;;5020665;28;20021;-55
2022/03/18 10:25:55;;;;;;;2.17;0.80;;;15.30;50.10;;;;;;5027128;28;20506;-58
2022/03/18 10:28:47;;;;;;;1.60;0.93;;;14.30;52.10;;;;;;5028723;28;20025;-60
2022/03/18 10:31:15;;;;;;;1.30;0.90;;;14.00;50.10;;;;;;5028217;28;20457;-56
2022/03/18 10:37:05;;;;;;;2.43;0.83;;;13.40;51.70;;;;;;5021798;28;20032;-60
2022/03/18 10:39:40;;;;;;;4.32;1.08;;;13.40;51.00;;;;;;5016899;28;20030;-61
2022/03/18 10:42:09;;;;;;;2.15;0.57;;;13.50;55.50;;;;;;5028209;28;20092;-57
2022/03/18 10:44:51;;;;;;;1.52;0.93;;;13.60;54.50;;;;;;5023095;28;20045;-58
2022/03/18 10:47:35;;;;;;;2.17;0.65;;;13.50;52.50;;;;;;5027946;28;20653;-59
2022/03/18 10:50:10;;;;;;;;;;;13.70;53.70;;;;;;5026282;28;20056;-57
2022/03/18 10:52:36;;;;;;;2.05;0.70;;;13.70;52.10;;;;;;5025280;28;19913;-58
2022/03/18 10:55:26;;;;;;;2.83;0.60;;;13.50;53.40;;;;;;5028965;28;20033;-60
2022/03/18 10:57:52;;;;;;;1.13;0.70;;;13.60;51.80;;;;;;5011338;28;20042;-57
2022/03/18 11:00:18;;;;;;;1.42;0.63;;;13.50;53.50;;;;;;5019803;28;20029;-58
2022/03/18 11:02:48;;;;;;;1.50;0.80;;;13.40;51.30;;;;;;5025205;28;20502;-56
2022/03/18 11:05:14;;;;;;;3.00;0.93;;;13.50;51.70;;;;;;5027605;28;20486;-60
2022/03/18 11:07:41;;;;;;;3.25;1.27;;;13.50;52.70;;;;;;5026812;28;20030;-60
2022/03/18 11:12:55;;;;;;;5.32;0.90;;;13.50;52.80;;;;;;5029191;28;20116;-58
2022/03/18 11:15:24;;;;;;;2.03;0.85;;;13.40;54.70;;;;;;5030330;28;20029;-59
2022/03/18 11:17:51;;;;;;;1.95;1.20;;;13.20;53.00;;;;;;5024304;28;20479;-52
2022/03/18 11:20:20;;;;;;;1.25;0.80;;;13.30;53.20;;;;;;5022845;28;20021;-60
2022/03/18 11:22:47;;;;;;;3.35;0.95;;;13.50;53.60;;;;;;5015500;28;20032;-58
2022/03/18 11:25:15;;;;;;;2.30;1.10;;;13.50;53.20;;;;;;5021985;28;20463;-52
2022/03/18 11:27:44;;;;;;;1.17;0.73;;;13.60;52.10;;;;;;5027959;28;20544;-59
2022/03/18 11:30:25;;;;;;;5.07;0.95;;;13.60;52.40;;;;;;5024959;28;20039;-52
2022/03/18 11:33:06;;;;;;;2.08;0.70;;;13.60;53.30;;;;;;5025345;28;20033;-57
2022/03/18 11:35:50;;;;;;;2.60;1.85;;;13.50;54.30;;;;;;5024516;28;20533;-58
2022/03/18 11:38:22;;;;;;;;;;;13.60;53.90;;;;;;5026043;28;20040;-57
2022/03/18 11:40:57;;;;;;;1.48;0.80;;;13.60;52.90;;;;;;5032644;28;19974;-54
2022/03/18 11:43:37;;;;;;;2.13;1.08;;;13.70;51.50;;;;;;5029183;28;20457;-57
2022/03/18 11:46:19;;;;;;;2.45;0.88;;;13.70;51.90;;;;;;5033112;28;20060;-59
2022/03/18 11:49:08;;;;;;;1.27;0.80;;;13.70;54.20;;;;;;5026750;28;20034;-57
2022/03/18 11:51:46;;;;;;;3.17;0.60;;;13.70;51.50;;;;;;5025630;28;20100;-58
2022/03/18 11:54:24;;;;;;;1.45;1.00;;;13.70;52.30;;;;;;5018395;28;20421;-58
2022/03/18 11:56:59;;;;;;;2.65;0.90;;;13.70;52.70;;;;;;5033934;28;20026;-59
2022/03/18 11:59:24;;;;;;;1.50;0.90;;;13.70;53.10;;;;;;5002319;28;20056;-59
2022/03/18 12:01:57;;;;;;;1.92;0.88;;;13.80;51.10;;;;;;5032853;28;20467;-52
2022/03/18 12:04:39;;;;;;;1.27;0.80;;;13.80;51.30;;;;;;5020317;28;20029;-60
2022/03/18 12:07:10;;;;;;;0.93;0.55;;;13.80;50.70;;;;;;5029319;28;20025;-56
2022/03/18 12:10:02;;;;;;;1.50;0.93;;;13.80;52.00;;;;;;5026645;28;20017;-58
2022/03/18 12:12:44;;;;;;;3.85;1.35;;;13.70;51.70;;;;;;5031910;28;20574;-51
2022/03/18 12:15:19;;;;;;;1.73;0.70;;;13.70;50.80;;;;;;5032719;28;20034;-57
2022/03/18 12:17:52;;;;;;;1.00;0.80;;;13.70;50.80;;;;;;5028585;28;20382;-59
2022/03/18 12:20:22;;;;;;;3.05;1.00;;;13.80;54.50;;;;;;5021601;28;20601;-58
2022/03/18 12:22:52;;;;;;;3.92;1.00;;;13.90;51.90;;;;;;5026138;28;20402;-60
2022/03/18 12:25:20;;;;;;;4.95;0.90;;;14.00;52.10;;;;;;5027337;28;20032;-58
2022/03/18 12:27:46;;;;;;;1.02;0.77;;;14.00;50.40;;;;;;5029792;28;20156;-60
2022/03/18 12:30:16;;;;;;;2.60;0.90;;;13.90;50.60;;;;;;5028972;28;20100;-60
2022/03/18 12:32:51;;;;;;;1.80;0.88;;;13.90;51.20;;;;;;5028743;28;20021;-58
2022/03/18 12:35:18;;;;;;;1.40;0.57;;;13.90;51.00;;;;;;5029044;28;20025;-57
2022/03/18 12:37:45;;;;;;;2.78;0.80;;;13.90;48.90;;;;;;5026474;28;20104;-59
2022/03/18 12:40:12;;;;;;;2.15;0.70;;;13.90;49.40;;;;;;5030065;28;20033;-60
2022/03/18 12:42:47;;;;;;;2.33;0.90;;;13.90;48.90;;;;;;5027615;28;20060;-60
2022/03/18 12:45:25;;;;;;;3.05;0.82;;;13.90;52.60;;;;;;5025780;28;20398;-58
2022/03/18 12:47:53;;;;;;;2.08;0.60;;;14.00;50.50;;;;;;5026707;28;21160;-57
2022/03/18 12:50:18;;;;;;;1.42;0.63;;;14.00;49.00;;;;;;5027430;28;20026;-59
2022/03/18 12:52:44;;;;;;;1.52;0.65;;;14.00;47.70;;;;;;5024881;28;20037;-56
2022/03/18 12:55:12;;;;;;;2.58;1.33;;;14.00;47.90;;;;;;5030907;28;20111;-58
2022/03/18 12:57:41;;;;;;;2.15;0.77;;;13.90;49.30;;;;;;5013841;28;20529;-60
2022/03/18 13:00:09;;;;;;;1.90;1.10;;;14.10;51.40;;;;;;5028714;28;20038;-60
2022/03/18 13:02:35;;;;;;;2.50;0.90;;;14.10;48.30;;;;;;5035225;28;20030;-56
2022/03/18 13:05:05;;;;;;;2.58;1.02;;;14.20;47.50;;;;;;5021140;28;20117;-55
2022/03/18 13:07:31;;;;;;;1.45;0.80;;;14.10;47.70;;;;;;5030424;28;20418;-58
2022/03/18 13:09:56;;;;;;;1.67;0.88;;;14.10;46.10;;;;;;5020292;28;20033;-55
2022/03/18 13:12:26;;;;;;;0.98;0.50;;;14.20;48.30;;;;;;5030502;28;20037;-58